createdAt,value
2023-02-11T00:02:13.236Z,99111.78
2023-02-11T00:07:14.896Z,99123.66
2023-02-11T00:12:19.486Z,99121.38
2023-02-11T00:17:21.510Z,99117.16
2023-02-11T00:22:23.565Z,99130.13
2023-02-11T00:27:25.231Z,99132.97
2023-02-11T00:32:26.905Z,99129.28
2023-02-11T00:37:29.157Z,99133.81
2023-02-11T00:42:31.004Z,99136.91
2023-02-11T00:47:32.620Z,99131.81
2023-02-11T00:52:34.931Z,99124.63
2023-02-11T00:57:37.616Z,99129.59
2023-02-11T01:02:39.663Z,99116.28
2023-02-11T01:07:41.324Z,99117.97
2023-02-11T01:12:43.054Z,99121.38
2023-02-11T01:17:45.381Z,99116.47
2023-02-11T01:22:47.139Z,99115.72
2023-02-11T01:27:50.491Z,99106.44
2023-02-11T01:32:52.190Z,99100.22
2023-02-11T01:37:53.930Z,99093.03
2023-02-11T01:42:55.544Z,99089.50
2023-02-11T01:47:57.247Z,99072.00
2023-02-11T01:53:18.931Z,99070.56
2023-02-11T01:58:21.705Z,99056.59
2023-02-11T02:03:24.724Z,99057.03
2023-02-11T02:08:29.531Z,99047.00
2023-02-11T02:13:33.772Z,99028.53
2023-02-11T02:18:59.858Z,99024.44
2023-02-11T02:24:26.369Z,99028.84
2023-02-11T02:29:46.704Z,99008.78
2023-02-11T02:35:04.167Z,99002.00
2023-02-11T02:40:12.897Z,98999.75
2023-02-11T02:45:14.852Z,99001.72
2023-02-11T02:50:19.649Z,98995.09
2023-02-11T02:55:54.795Z,98994.38
2023-02-11T03:01:21.270Z,98993.25
2023-02-11T03:06:45.910Z,99002.28
2023-02-11T03:11:47.653Z,99000.19
2023-02-11T03:16:51.776Z,99009.63
2023-02-11T03:21:55.225Z,99019.63
2023-02-11T03:27:01.528Z,99018.34
2023-02-11T03:32:31.100Z,99024.84
2023-02-11T03:37:40.127Z,99037.25
2023-02-11T03:42:46.418Z,99036.13
2023-02-11T03:47:56.755Z,99027.78
2023-02-11T03:53:00.546Z,99028.78
2023-02-11T03:58:02.225Z,99037.84
2023-02-11T04:03:04.622Z,99040.22
2023-02-11T04:08:06.394Z,99034.16
2023-02-11T04:13:08.184Z,99035.31
2023-02-11T04:18:09.923Z,99024.81
2023-02-11T04:23:11.571Z,99023.13
2023-02-11T04:28:13.268Z,99025.13
2023-02-11T04:33:14.923Z,99018.16
2023-02-11T04:38:17.047Z,99022.22
2023-02-11T04:43:18.825Z,99012.13
2023-02-11T04:48:20.604Z,99010.50
2023-02-11T04:53:22.231Z,99009.19
2023-02-11T04:58:24.374Z,99006.19
2023-02-11T05:03:26.104Z,98976.88
2023-02-11T05:08:28.175Z,98979.84
2023-02-11T05:13:30.286Z,98982.97
2023-02-11T05:18:31.925Z,98995.34
2023-02-11T05:23:34.288Z,98969.78
2023-02-11T05:28:37.750Z,98970.22
2023-02-11T05:33:39.446Z,98976.53
2023-02-11T05:38:42.550Z,98977.13
2023-02-11T05:43:44.185Z,98990.63
2023-02-11T05:48:45.834Z,98990.31
2023-02-11T05:53:47.507Z,98986.78
2023-02-11T05:58:49.195Z,98973.25
2023-02-11T06:03:51.356Z,98964.03
2023-02-11T06:08:53.124Z,98946.72
2023-02-11T06:13:54.905Z,98946.41
2023-02-11T06:18:56.555Z,98977.75
2023-02-11T06:23:58.331Z,98974.44
2023-02-11T06:29:01.301Z,98971.78
2023-02-11T06:34:03.263Z,98976.66
2023-02-11T06:39:05.143Z,98956.31
2023-02-11T06:44:07.287Z,98944.50
2023-02-11T06:49:09.076Z,98934.22
2023-02-11T06:54:12.104Z,98953.25
2023-02-11T06:59:18.563Z,98952.97
2023-02-11T07:04:20.321Z,98958.91
2023-02-11T07:09:21.972Z,98971.19
2023-02-11T07:14:23.799Z,98963.47
2023-02-11T07:19:25.487Z,98954.69
2023-02-11T07:24:27.709Z,98946.78
2023-02-11T07:29:29.399Z,98945.28
2023-02-11T07:34:31.358Z,98950.00
2023-02-11T07:39:33.127Z,98942.94
2023-02-11T07:44:35.097Z,98945.06
2023-02-11T07:49:36.795Z,98939.09
2023-02-11T07:54:38.427Z,98954.75
2023-02-11T07:59:40.131Z,98944.31
2023-02-11T08:04:41.807Z,98924.59
2023-02-11T08:09:43.551Z,98933.38
2023-02-11T08:14:45.416Z,98920.88
2023-02-11T08:19:47.130Z,98922.41
2023-02-11T08:24:52.262Z,98945.19
2023-02-11T08:29:54.870Z,98942.81
2023-02-11T08:34:56.956Z,98959.34
2023-02-11T08:39:58.675Z,98956.63
2023-02-11T08:45:00.383Z,98958.00
2023-02-11T08:50:02.042Z,98965.06
2023-02-11T08:55:04.349Z,98966.75
2023-02-11T09:00:06.822Z,98958.81
2023-02-11T09:05:09.118Z,98948.53
2023-02-11T09:10:11.798Z,98950.06
2023-02-11T09:15:13.607Z,98940.06
2023-02-11T09:20:15.370Z,98930.94
2023-02-11T09:25:17.002Z,98922.78
2023-02-11T09:30:18.759Z,98943.00
2023-02-11T09:35:20.424Z,98937.38
2023-02-11T09:40:23.229Z,98932.69
2023-02-11T09:45:28.464Z,98923.06
2023-02-11T09:50:34.297Z,98929.38
2023-02-11T09:55:42.871Z,98918.75
2023-02-11T10:00:48.938Z,98927.47
2023-02-11T10:06:10.716Z,98914.88
2023-02-11T10:11:31.529Z,98920.22
2023-02-11T10:16:48.279Z,98934.25
2023-02-11T10:22:23.103Z,98915.00
2023-02-11T10:27:30.656Z,98927.81
2023-02-11T10:32:39.224Z,98943.69
2023-02-11T10:37:43.565Z,98931.09
2023-02-11T10:42:51.235Z,98923.81
2023-02-11T10:47:55.212Z,98926.13
2023-02-11T10:53:12.317Z,98931.00
2023-02-11T10:58:24.060Z,98920.69
2023-02-11T11:03:33.976Z,98924.34
2023-02-11T11:08:47.833Z,98909.34
2023-02-11T11:13:52.766Z,98906.34
2023-02-11T11:19:22.217Z,98907.28
2023-02-11T11:24:37.461Z,98906.38
2023-02-11T11:29:51.221Z,98896.59
2023-02-11T11:34:55.788Z,98895.81
2023-02-11T11:40:00.523Z,98890.31
2023-02-11T11:45:24.750Z,98874.97
2023-02-11T11:50:35.594Z,98868.88
2023-02-11T11:55:59.852Z,98853.09
2023-02-11T12:01:04.417Z,98863.72
2023-02-11T12:06:24.439Z,98875.59
2023-02-11T12:11:52.803Z,98875.31
2023-02-11T12:17:22.397Z,98847.13
2023-02-11T12:22:51.514Z,98846.00
2023-02-11T12:28:16.797Z,98851.28
2023-02-11T12:33:57.670Z,98842.06
2023-02-11T12:39:06.501Z,98833.06
2023-02-11T12:44:23.763Z,98825.56
2023-02-11T12:49:38.630Z,98828.09
2023-02-11T12:54:47.772Z,98840.09
2023-02-11T12:59:59.191Z,98813.91
2023-02-11T13:05:15.872Z,98814.28
2023-02-11T13:10:34.603Z,98810.94
2023-02-11T13:15:37.060Z,98799.22
2023-02-11T13:20:50.886Z,98795.47
2023-02-11T13:26:10.487Z,98796.28
2023-02-11T13:31:13.563Z,98796.75
2023-02-11T13:36:27.596Z,98812.25
2023-02-11T13:41:41.818Z,98805.50
2023-02-11T13:46:53.077Z,98805.44
2023-02-11T13:51:55.755Z,98818.38
2023-02-11T13:57:19.635Z,98813.13
2023-02-11T14:02:55.151Z,98812.53
2023-02-11T14:08:30.947Z,98802.66
2023-02-11T14:13:34.565Z,98788.19
2023-02-11T14:18:39.045Z,98794.09
2023-02-11T14:23:41.659Z,98790.94
2023-02-11T14:28:46.765Z,98795.75
2023-02-11T14:34:12.449Z,98791.13
2023-02-11T14:39:47.046Z,98781.72
2023-02-11T14:44:52.223Z,98796.97
2023-02-11T14:49:54.278Z,98801.59
2023-02-11T14:55:14.820Z,98812.50
2023-02-11T15:00:22.104Z,98813.13
2023-02-11T15:05:31.382Z,98819.19
2023-02-11T15:10:37.884Z,98811.44
2023-02-11T15:15:40.681Z,98807.03
2023-02-11T15:20:42.476Z,98794.09
2023-02-11T15:25:51.079Z,98801.63
2023-02-11T15:31:14.100Z,98805.16
2023-02-11T15:36:16.334Z,98805.78
2023-02-11T15:41:38.370Z,98818.94
2023-02-11T15:46:40.896Z,98817.88
2023-02-11T15:51:45.881Z,98834.22
2023-02-11T15:56:52.762Z,98837.13
2023-02-11T16:01:55.423Z,98830.00
2023-02-11T16:06:57.478Z,98823.69
2023-02-11T16:12:07.485Z,98824.94
2023-02-11T16:17:12.625Z,98837.91
2023-02-11T16:22:18.859Z,98838.91
2023-02-11T16:27:25.701Z,98842.03
2023-02-11T16:32:29.664Z,98839.50
2023-02-11T16:37:32.261Z,98847.88
2023-02-11T16:42:34.123Z,98859.59
2023-02-11T16:47:40.819Z,98861.25
2023-02-11T16:52:43.140Z,98867.56
2023-02-11T16:57:44.848Z,98870.28
2023-02-11T17:02:46.613Z,98880.94
2023-02-11T17:07:49.145Z,98883.03
2023-02-11T17:12:51.371Z,98890.53
2023-02-11T17:17:53.122Z,98883.41
2023-02-11T17:22:54.870Z,98885.09
2023-02-11T17:27:56.722Z,98896.81
2023-02-11T17:32:58.478Z,98911.47
2023-02-11T17:38:01.367Z,98914.38
2023-02-11T17:43:03.312Z,98921.69
2023-02-11T17:48:05.096Z,98929.38
2023-02-11T17:53:06.739Z,98922.69
2023-02-11T17:58:08.739Z,98931.50
2023-02-11T18:03:10.358Z,98918.38
2023-02-11T18:08:12.113Z,98914.16
2023-02-11T18:13:14.006Z,98930.03
2023-02-11T18:18:16.308Z,98929.59
2023-02-11T18:23:18.031Z,98935.00
2023-02-11T18:28:19.842Z,98930.97
2023-02-11T18:33:21.559Z,98945.06
2023-02-11T18:38:24.191Z,98952.00
2023-02-11T18:43:26.000Z,98938.31
2023-02-11T18:48:28.221Z,98944.56
2023-02-11T18:53:30.176Z,98949.56
2023-02-11T18:58:32.188Z,98947.34
2023-02-11T19:03:34.010Z,98946.56
2023-02-11T19:08:35.868Z,98940.53
2023-02-11T19:13:38.288Z,98929.81
2023-02-11T19:18:40.182Z,98934.28
2023-02-11T19:23:41.859Z,98950.00
2023-02-11T19:28:44.677Z,98947.59
2023-02-11T19:33:47.655Z,98954.91
2023-02-11T19:38:49.765Z,98956.16
2023-02-11T19:43:52.919Z,98957.97
2023-02-11T19:48:54.884Z,98962.34
2023-02-11T19:53:58.001Z,98962.94
2023-02-11T19:59:03.505Z,98974.31
2023-02-11T20:04:06.769Z,98983.19
2023-02-11T20:09:14.100Z,98984.50
2023-02-11T20:14:16.045Z,98983.75
2023-02-11T20:19:21.247Z,98993.38
2023-02-11T20:24:25.606Z,98990.22
2023-02-11T20:29:29.570Z,98983.06
2023-02-11T20:34:31.362Z,98987.69
2023-02-11T20:39:33.328Z,98985.16
2023-02-11T20:44:36.677Z,98979.72
2023-02-11T20:49:38.390Z,98988.13
2023-02-11T20:54:40.268Z,98986.81
2023-02-11T20:59:42.657Z,98983.28
2023-02-11T21:04:44.350Z,98988.81
2023-02-11T21:09:46.080Z,98987.03
2023-02-11T21:14:47.716Z,98984.03
2023-02-11T21:19:49.561Z,98987.75
2023-02-11T21:24:51.330Z,98993.84
2023-02-11T21:29:54.798Z,98993.00
2023-02-11T21:34:56.669Z,98989.34
2023-02-11T21:39:58.384Z,98979.03
2023-02-11T21:45:00.267Z,98986.63
2023-02-11T21:50:01.858Z,98992.63
2023-02-11T21:55:03.756Z,98992.81
2023-02-11T22:00:07.686Z,99002.06
2023-02-11T22:05:10.546Z,99003.19
2023-02-11T22:10:12.868Z,99007.59
2023-02-11T22:15:14.944Z,99009.75
2023-02-11T22:20:17.494Z,99022.47
2023-02-11T22:25:19.336Z,99026.69
2023-02-11T22:30:21.046Z,99021.63
2023-02-11T22:35:22.780Z,99027.97
2023-02-11T22:40:24.989Z,99035.94
2023-02-11T22:45:26.936Z,99030.31
2023-02-11T22:50:28.697Z,99039.63
2023-02-11T22:55:30.615Z,99036.66
2023-02-11T23:00:37.962Z,99030.69
2023-02-11T23:05:42.867Z,99036.13
2023-02-11T23:10:44.610Z,99042.38
2023-02-11T23:15:47.151Z,99050.97
2023-02-11T23:20:48.900Z,99050.66
2023-02-11T23:25:50.588Z,99048.91
2023-02-11T23:30:52.403Z,99051.34
2023-02-11T23:35:54.369Z,99049.97
2023-02-11T23:40:56.208Z,99042.47
2023-02-11T23:45:58.354Z,99044.72
2023-02-11T23:51:00.116Z,99065.19
2023-02-11T23:56:07.413Z,99050.22
